Terminal Aerodrome Forecast
Issued by NWS

Home | Current Version | Previous Version | Graphics & Text | Print | Product List | Glossary On
Versions: 1 2 3 4 5 6 7 8 9 10 11 12 13 14 15 16 17 18 19 20
000
FTUS43 KGRB 251636 AAC
TAFAUW
TAF AMD
KAUW 251636Z 2517/2612 10010KT P6SM OVC010
     FM251800 11010G17KT P6SM SCT025 BKN200
     FM252100 12009KT 6SM -SHRA BKN025 OVC080
      TEMPO 2522/2602 2SM +TSRA BKN008 OVC015CB
     FM260400 15007KT 2SM BR BKN005 BKN010=

USA.gov is the U.S. government's official web portal to all federal, state and local government web resources and services.